Time;durP1;ratioP1;P1;durP2;ratioP2;P2;SDS_P1;SDS_P2;PMS_P1;PMS_P2;Temp;Humidity;BMP_temperature;BMP_pressure;BME280_temperature;BME280_humidity;BME280_pressure;Samples;Min_cycle;Max_cycle;Signal;HPM_P1;HPM_P2
2021/06/28 00:01:20;;;;;;;13.13;2.65;;;16.80;99.90;;;;;;5059495;28;20060;-83
2021/06/28 00:03:46;;;;;;;11.88;2.90;;;16.90;99.90;;;;;;5052243;28;20021;-83
2021/06/28 00:06:13;;;;;;;9.30;2.60;;;16.90;99.90;;;;;;5068599;28;20021;-83
2021/06/28 00:08:40;;;;;;;11.30;2.28;;;17.00;99.90;;;;;;5048709;28;20060;-83
2021/06/28 00:11:08;;;;;;;10.82;2.17;;;17.00;99.90;;;;;;5058807;28;20086;-83
2021/06/28 00:13:39;;;;;;;9.13;2.40;;;17.00;99.90;;;;;;5072059;28;20012;-83
2021/06/28 00:16:06;;;;;;;8.68;2.03;;;17.00;99.90;;;;;;5052785;28;20025;-83
2021/06/28 00:18:32;;;;;;;8.10;2.10;;;17.00;99.90;;;;;;5050933;28;20346;-84
2021/06/28 00:20:58;;;;;;;10.43;2.28;;;17.10;99.90;;;;;;5059511;28;20029;-83
2021/06/28 00:23:24;;;;;;;7.50;1.98;;;17.10;99.90;;;;;;5065877;28;20029;-83
2021/06/28 00:25:49;;;;;;;6.75;2.35;;;17.10;99.90;;;;;;5052557;28;20637;-83
2021/06/28 00:28:15;;;;;;;12.63;2.25;;;17.10;99.90;;;;;;5053906;28;20017;-83
2021/06/28 00:30:43;;;;;;;10.52;2.17;;;17.10;99.90;;;;;;5062001;28;20025;-83
2021/06/28 00:33:14;;;;;;;7.45;2.22;;;17.10;99.90;;;;;;5063791;28;20054;-83
2021/06/28 00:35:40;;;;;;;14.25;2.65;;;17.20;99.90;;;;;;5047713;28;20020;-83
2021/06/28 00:38:07;;;;;;;7.88;2.42;;;17.20;99.90;;;;;;5065709;28;20154;-83
2021/06/28 00:40:34;;;;;;;10.13;2.53;;;17.10;99.90;;;;;;5061722;28;20616;-83
2021/06/28 00:43:00;;;;;;;15.27;3.17;;;17.00;99.90;;;;;;5064512;28;20067;-83
2021/06/28 00:45:32;;;;;;;6.97;2.00;;;17.00;99.90;;;;;;5063531;28;20445;-83
2021/06/28 00:48:01;;;;;;;7.18;1.92;;;16.90;99.90;;;;;;5062663;28;20100;-83
2021/06/28 00:50:33;;;;;;;12.23;1.65;;;16.90;99.90;;;;;;5066804;28;20162;-83
2021/06/28 00:53:05;;;;;;;8.82;1.65;;;16.80;99.90;;;;;;5063606;28;20569;-83
2021/06/28 00:55:31;;;;;;;7.25;1.80;;;16.80;99.90;;;;;;5068127;28;20050;-83
2021/06/28 00:57:57;;;;;;;6.38;2.03;;;16.70;99.90;;;;;;5062054;28;20021;-83
2021/06/28 01:00:24;;;;;;;9.38;2.42;;;16.60;99.90;;;;;;5072042;28;20069;-83
2021/06/28 01:02:50;;;;;;;13.30;2.20;;;16.50;99.90;;;;;;5063009;28;20029;-83
2021/06/28 01:05:21;;;;;;;11.30;2.28;;;16.50;99.90;;;;;;5071761;28;20020;-83
2021/06/28 01:07:48;;;;;;;8.02;2.00;;;16.50;99.90;;;;;;5070449;28;20078;-83
2021/06/28 01:10:15;;;;;;;9.77;2.45;;;16.50;99.90;;;;;;5057079;28;20079;-83
2021/06/28 01:12:43;;;;;;;15.73;2.42;;;16.50;99.90;;;;;;5060426;28;20032;-83
2021/06/28 01:15:10;;;;;;;10.75;2.63;;;16.50;99.90;;;;;;5071818;28;20389;-83
2021/06/28 01:17:37;;;;;;;10.68;2.20;;;16.50;99.90;;;;;;5064624;28;20298;-83
2021/06/28 01:20:08;;;;;;;11.63;2.40;;;16.50;99.90;;;;;;5062937;28;20016;-83
2021/06/28 01:22:36;;;;;;;11.43;2.10;;;16.50;99.90;;;;;;5066281;28;20056;-83
2021/06/28 01:25:04;;;;;;;12.10;2.33;;;16.50;99.90;;;;;;5056965;28;20020;-83
2021/06/28 01:27:30;;;;;;;12.30;2.05;;;16.50;99.90;;;;;;5063085;28;20070;-83
2021/06/28 01:29:57;;;;;;;13.82;2.28;;;16.60;99.90;;;;;;5059302;28;20029;-83
2021/06/28 01:32:23;;;;;;;9.45;1.92;;;16.60;99.90;;;;;;5061187;28;20035;-83
2021/06/28 01:34:49;;;;;;;5.68;1.50;;;16.60;99.90;;;;;;5064389;28;20100;-84
2021/06/28 01:37:23;;;;;;;7.53;1.52;;;16.60;99.90;;;;;;5069151;28;20099;-83
2021/06/28 01:39:51;;;;;;;6.03;1.90;;;16.60;99.90;;;;;;5064208;28;20074;-83
2021/06/28 01:42:17;;;;;;;7.70;2.00;;;16.70;99.90;;;;;;5057926;28;20086;-83
2021/06/28 01:44:43;;;;;;;13.23;2.65;;;16.70;99.90;;;;;;5066225;28;20099;-83
2021/06/28 01:47:12;;;;;;;10.82;2.35;;;16.70;99.90;;;;;;5055646;28;20108;-83
2021/06/28 01:49:37;;;;;;;9.68;2.55;;;16.60;99.90;;;;;;5067439;28;20397;-83
2021/06/28 01:52:05;;;;;;;9.90;2.47;;;16.60;99.90;;;;;;5058950;28;20037;-83
2021/06/28 01:54:31;;;;;;;7.40;2.28;;;16.60;99.90;;;;;;5066503;28;20251;-83
2021/06/28 01:56:57;;;;;;;11.90;2.50;;;16.60;99.90;;;;;;5070624;28;20255;-83
2021/06/28 01:59:30;;;;;;;9.95;1.98;;;16.60;99.90;;;;;;5070615;28;20093;-83
2021/06/28 02:01:57;;;;;;;10.52;2.42;;;16.60;99.90;;;;;;5057204;28;20013;-83
2021/06/28 02:04:24;;;;;;;10.98;2.40;;;16.60;99.90;;;;;;5070390;28;20086;-83
2021/06/28 02:06:51;;;;;;;7.70;2.25;;;16.60;99.90;;;;;;5058173;28;20381;-84
2021/06/28 02:09:17;;;;;;;12.35;2.15;;;16.60;99.90;;;;;;5069133;28;20446;-83
2021/06/28 02:11:43;;;;;;;13.82;2.13;;;16.70;99.90;;;;;;5058905;28;20183;-83
2021/06/28 02:14:09;;;;;;;11.32;2.90;;;16.70;99.90;;;;;;5068703;28;20036;-83
2021/06/28 02:16:34;;;;;;;5.93;2.10;;;16.60;99.90;;;;;;5059814;28;20386;-84
2021/06/28 02:19:00;;;;;;;9.77;2.22;;;16.60;99.90;;;;;;5067241;28;20032;-83
2021/06/28 02:21:26;;;;;;;9.45;2.55;;;16.70;99.90;;;;;;5059013;28;20016;-83
2021/06/28 02:23:52;;;;;;;9.02;2.30;;;16.70;99.90;;;;;;5069824;28;20036;-83
2021/06/28 02:26:17;;;;;;;11.85;2.88;;;16.70;99.90;;;;;;5064394;28;20015;-83
2021/06/28 02:28:46;;;;;;;11.98;2.50;;;16.80;99.90;;;;;;5067621;28;20514;-84
2021/06/28 02:31:16;;;;;;;15.10;2.75;;;16.70;99.90;;;;;;5065818;28;20039;-83
2021/06/28 02:33:42;;;;;;;6.88;2.13;;;16.70;99.90;;;;;;5067381;28;20260;-83
2021/06/28 02:36:08;;;;;;;6.53;2.30;;;16.70;99.90;;;;;;5067505;28;20024;-83
2021/06/28 02:38:36;;;;;;;9.00;2.55;;;16.70;99.90;;;;;;5066644;28;20049;-83
2021/06/28 02:41:03;;;;;;;8.38;2.72;;;16.70;99.90;;;;;;5068755;28;20031;-83
2021/06/28 02:43:29;;;;;;;5.85;2.15;;;16.60;99.90;;;;;;5065639;28;20561;-83
2021/06/28 02:45:55;;;;;;;10.93;2.80;;;16.50;99.90;;;;;;5070180;28;20066;-83
2021/06/28 02:48:21;;;;;;;13.65;3.08;;;16.50;99.90;;;;;;5059088;28;20029;-83
2021/06/28 02:50:46;;;;;;;11.68;2.80;;;16.40;99.90;;;;;;5055772;28;20071;-83
2021/06/28 02:53:16;;;;;;;4.93;2.30;;;16.50;99.90;;;;;;5066626;28;20289;-84
2021/06/28 02:55:42;;;;;;;7.20;2.45;;;16.50;99.90;;;;;;5059708;28;20021;-84
2021/06/28 02:58:07;;;;;;;11.38;2.78;;;16.50;99.90;;;;;;5063379;28;20035;-83
2021/06/28 03:00:33;;;;;;;11.05;2.42;;;16.50;99.90;;;;;;5058371;28;20021;-83
2021/06/28 03:02:59;;;;;;;9.80;3.13;;;16.50;99.90;;;;;;5062682;28;20465;-83
2021/06/28 03:05:26;;;;;;;9.75;2.53;;;16.40;99.90;;;;;;5059976;28;20021;-83
2021/06/28 03:07:52;;;;;;;8.90;2.60;;;16.30;99.90;;;;;;5060397;28;20078;-83
2021/06/28 03:10:18;;;;;;;8.63;2.53;;;16.40;99.90;;;;;;5062346;28;20021;-83
2021/06/28 03:12:44;;;;;;;8.60;2.45;;;16.40;99.90;;;;;;5058806;28;20063;-83
2021/06/28 03:15:13;;;;;;;8.13;3.60;;;16.40;99.90;;;;;;5065247;28;20033;-84
2021/06/28 03:17:39;;;;;;;12.15;2.60;;;16.50;99.90;;;;;;5058171;28;20024;-83
2021/06/28 03:20:07;;;;;;;7.85;2.50;;;16.50;99.90;;;;;;5059067;28;20044;-83
2021/06/28 03:22:32;;;;;;;12.27;2.97;;;16.40;99.90;;;;;;5057184;28;20519;-83
2021/06/28 03:24:58;;;;;;;6.63;2.28;;;16.50;99.90;;;;;;5052287;28;20063;-83
2021/06/28 03:27:24;;;;;;;7.70;2.92;;;16.40;99.90;;;;;;5056291;28;20013;-83
2021/06/28 03:29:49;;;;;;;20.45;7.88;;;16.30;99.90;;;;;;5061402;28;20366;-84
2021/06/28 03:32:15;;;;;;;23.00;13.80;;;16.20;99.90;;;;;;5054799;28;20500;-84
2021/06/28 03:34:42;;;;;;;25.92;19.02;;;16.10;99.90;;;;;;5063116;28;20024;-83
2021/06/28 03:37:11;;;;;;;19.33;9.10;;;16.00;99.90;;;;;;5053930;28;20461;-83
2021/06/28 03:39:37;;;;;;;16.70;9.68;;;15.80;99.90;;;;;;5066373;28;20249;-83
2021/06/28 03:42:03;;;;;;;13.55;7.72;;;15.90;99.90;;;;;;5052503;28;20674;-83
2021/06/28 03:44:29;;;;;;;11.20;5.97;;;15.80;99.90;;;;;;5059647;28;20013;-83
2021/06/28 03:46:55;;;;;;;12.15;3.17;;;15.90;99.90;;;;;;5055978;28;20044;-83
2021/06/28 03:49:20;;;;;;;8.52;2.67;;;15.90;99.90;;;;;;5061585;28;20063;-83
2021/06/28 03:51:46;;;;;;;13.23;2.67;;;15.80;99.90;;;;;;5054491;28;20052;-83
2021/06/28 03:54:12;;;;;;;7.85;1.98;;;15.70;99.90;;;;;;5062257;28;20066;-83
2021/06/28 03:56:37;;;;;;;10.55;2.50;;;15.70;99.90;;;;;;5054957;28;20029;-83
2021/06/28 03:59:03;;;;;;;8.52;1.77;;;15.60;99.90;;;;;;5062410;28;20115;-83
2021/06/28 04:01:29;;;;;;;7.63;2.35;;;15.50;99.90;;;;;;5055133;28;20040;-83
2021/06/28 04:03:55;;;;;;;6.97;1.77;;;15.40;99.90;;;;;;5063642;28;20032;-83
2021/06/28 04:06:22;;;;;;;10.93;2.25;;;15.20;99.90;;;;;;5059991;28;20417;-83
2021/06/28 04:08:47;;;;;;;12.73;2.63;;;15.20;99.90;;;;;;5066979;28;20481;-83
2021/06/28 04:11:13;;;;;;;10.52;2.30;;;15.20;99.90;;;;;;5061613;28;20039;-83
2021/06/28 04:13:39;;;;;;;11.27;2.22;;;15.20;99.90;;;;;;5068825;28;20024;-83
2021/06/28 04:16:05;;;;;;;14.15;2.72;;;15.20;99.90;;;;;;5053187;28;20025;-83
2021/06/28 04:18:31;;;;;;;9.65;2.00;;;15.20;99.90;;;;;;5066766;28;20016;-83
2021/06/28 04:20:57;;;;;;;8.80;2.33;;;15.30;99.90;;;;;;5064262;28;20477;-83
2021/06/28 04:23:22;;;;;;;8.93;2.70;;;15.20;99.90;;;;;;5045552;28;20076;-83
2021/06/28 04:25:48;;;;;;;10.30;2.20;;;15.20;99.90;;;;;;5065138;28;20033;-83
2021/06/28 04:28:14;;;;;;;9.90;2.85;;;15.30;99.90;;;;;;5064020;28;20032;-83
2021/06/28 04:30:39;;;;;;;9.60;2.55;;;15.30;99.90;;;;;;5069788;28;20043;-83
2021/06/28 04:33:05;;;;;;;7.78;2.50;;;15.30;99.90;;;;;;5063898;28;20117;-83
2021/06/28 04:35:31;;;;;;;9.15;2.50;;;15.30;99.90;;;;;;5058443;28;20029;-83
2021/06/28 04:37:58;;;;;;;7.70;2.40;;;15.30;99.90;;;;;;5049864;28;20378;-83
2021/06/28 04:40:27;;;;;;;7.65;2.90;;;15.30;99.90;;;;;;5070996;28;20650;-83
2021/06/28 04:42:53;;;;;;;9.23;2.50;;;15.20;99.90;;;;;;5068189;28;20587;-83
2021/06/28 04:45:20;;;;;;;7.65;2.95;;;15.30;99.90;;;;;;5060822;28;20502;-83
2021/06/28 04:47:47;;;;;;;10.60;3.15;;;15.30;99.90;;;;;;5061430;28;20070;-83
2021/06/28 04:50:14;;;;;;;12.15;3.65;;;15.20;99.90;;;;;;5071646;28;20048;-83
2021/06/28 04:52:40;;;;;;;7.72;3.35;;;15.30;99.90;;;;;;5053682;28;20558;-84
2021/06/28 04:55:08;;;;;;;9.38;3.88;;;15.20;99.90;;;;;;5052569;28;20552;-83
2021/06/28 04:57:35;;;;;;;13.07;4.07;;;15.20;99.90;;;;;;5037800;28;20017;-83
2021/06/28 05:00:02;;;;;;;8.85;4.03;;;15.20;99.90;;;;;;5062386;28;20437;-83
2021/06/28 05:02:28;;;;;;;9.40;3.50;;;15.20;99.90;;;;;;5038555;28;20598;-84
2021/06/28 05:04:53;;;;;;;8.10;3.17;;;15.30;99.90;;;;;;5062853;28;20025;-83
2021/06/28 05:07:19;;;;;;;11.30;3.72;;;15.40;99.90;;;;;;5057282;28;20112;-84
2021/06/28 05:09:45;;;;;;;9.85;3.47;;;15.50;99.90;;;;;;5063768;28;20032;-84
2021/06/28 05:12:12;;;;;;;9.60;3.22;;;15.60;99.90;;;;;;5056222;28;20035;-86
2021/06/28 05:14:39;;;;;;;8.68;2.85;;;15.60;99.90;;;;;;5066093;28;20021;-85
2021/06/28 05:17:05;;;;;;;7.72;3.13;;;15.60;99.90;;;;;;5054452;28;20493;-84
2021/06/28 05:19:31;;;;;;;12.00;3.28;;;15.70;99.90;;;;;;5043833;28;20140;-84
2021/06/28 05:21:57;;;;;;;10.20;3.67;;;15.70;99.90;;;;;;5056992;28;20880;-85
2021/06/28 05:24:22;;;;;;;9.95;4.13;;;15.70;99.90;;;;;;5044040;28;20032;-85
2021/06/28 05:26:48;;;;;;;7.35;3.50;;;15.70;99.90;;;;;;5036513;28;20477;-84
2021/06/28 05:29:14;;;;;;;9.50;3.63;;;15.70;99.90;;;;;;5063169;28;20021;-85
2021/06/28 05:31:39;;;;;;;7.28;3.58;;;15.80;99.90;;;;;;5055370;28;20029;-85
2021/06/28 05:34:08;;;;;;;9.55;3.75;;;15.80;99.90;;;;;;5047750;28;20029;-85
2021/06/28 05:36:34;;;;;;;8.50;3.75;;;15.80;99.90;;;;;;5053693;28;20531;-84
2021/06/28 05:39:01;;;;;;;13.75;4.55;;;15.80;99.90;;;;;;5040506;28;20115;-84
2021/06/28 05:41:26;;;;;;;8.70;4.32;;;15.90;99.90;;;;;;5053960;28;20024;-85
2021/06/28 05:43:52;;;;;;;10.93;4.63;;;15.80;99.90;;;;;;5062179;28;20390;-85
2021/06/28 05:46:18;;;;;;;11.35;4.90;;;15.90;99.90;;;;;;5065509;28;20024;-85
2021/06/28 05:48:43;;;;;;;9.68;4.35;;;15.90;99.90;;;;;;5062690;28;20025;-84
2021/06/28 05:51:09;;;;;;;16.33;4.93;;;15.80;99.90;;;;;;5061085;28;20091;-85
2021/06/28 05:53:35;;;;;;;12.63;4.93;;;15.80;99.90;;;;;;5066243;28;20013;-85
2021/06/28 05:56:02;;;;;;;14.75;5.30;;;15.80;99.90;;;;;;5071070;28;20031;-85
2021/06/28 05:58:29;;;;;;;10.35;4.78;;;15.80;99.90;;;;;;5067750;28;20115;-85
2021/06/28 06:00:59;;;;;;;9.93;4.80;;;15.70;99.90;;;;;;5036599;28;20481;-85
2021/06/28 06:03:26;;;;;;;10.32;4.30;;;15.80;99.90;;;;;;5070183;28;20020;-85
2021/06/28 06:05:52;;;;;;;7.95;4.00;;;15.70;99.90;;;;;;5035090;28;20036;-85
2021/06/28 06:08:23;;;;;;;9.30;4.50;;;15.70;99.90;;;;;;5062693;28;20550;-85
2021/06/28 06:10:53;;;;;;;9.23;3.90;;;15.70;99.90;;;;;;5070563;28;20035;-85
2021/06/28 06:13:19;;;;;;;8.30;4.63;;;15.70;99.90;;;;;;5052001;28;20392;-85
2021/06/28 06:15:45;;;;;;;5.63;3.38;;;15.60;99.90;;;;;;5059330;28;20025;-85
2021/06/28 06:18:11;;;;;;;10.60;3.63;;;15.60;99.90;;;;;;5059327;28;20199;-85
2021/06/28 06:20:37;;;;;;;6.20;3.90;;;15.70;99.90;;;;;;5056450;28;20489;-85
2021/06/28 06:23:03;;;;;;;8.13;3.00;;;15.70;99.90;;;;;;5042087;28;20401;-85
2021/06/28 06:25:29;;;;;;;11.35;3.30;;;15.70;99.90;;;;;;5064613;28;20095;-84
2021/06/28 06:27:54;;;;;;;6.15;2.78;;;15.70;99.90;;;;;;5069265;28;20259;-85
2021/06/28 06:30:21;;;;;;;6.57;2.92;;;15.70;99.90;;;;;;5055815;28;20021;-84
2021/06/28 06:32:48;;;;;;;5.32;2.85;;;15.70;99.90;;;;;;5041148;28;20329;-75
2021/06/28 06:35:14;;;;;;;5.78;2.92;;;15.80;99.90;;;;;;5053069;28;20106;-74
2021/06/28 06:37:40;;;;;;;6.57;3.20;;;15.90;99.90;;;;;;5058250;28;20035;-73
2021/06/28 06:40:07;;;;;;;7.85;3.15;;;15.90;99.90;;;;;;5061928;28;20017;-74
2021/06/28 06:42:33;;;;;;;12.45;3.50;;;15.90;99.90;;;;;;5056638;28;20025;-73
2021/06/28 06:44:58;;;;;;;5.72;2.55;;;15.90;99.90;;;;;;5066106;28;20032;-74
2021/06/28 06:47:24;;;;;;;7.13;2.90;;;15.80;99.90;;;;;;5055710;28;20029;-75
2021/06/28 06:49:50;;;;;;;8.13;2.90;;;15.80;99.90;;;;;;5066527;28;20036;-75
2021/06/28 06:52:17;;;;;;;9.45;3.00;;;15.80;99.90;;;;;;5056224;28;20064;-75
2021/06/28 06:54:43;;;;;;;7.35;2.67;;;15.90;99.90;;;;;;5067613;28;20020;-75
2021/06/28 06:57:10;;;;;;;5.38;2.75;;;15.90;99.90;;;;;;5055616;28;20024;-75
2021/06/28 06:59:36;;;;;;;4.82;2.70;;;15.90;99.90;;;;;;5064307;28;20100;-74
2021/06/28 07:02:01;;;;;;;4.82;2.80;;;15.90;99.90;;;;;;5059118;28;20584;-75
2021/06/28 07:04:27;;;;;;;7.78;3.15;;;15.90;99.90;;;;;;5068917;28;20086;-75
2021/06/28 07:06:53;;;;;;;4.97;2.63;;;15.90;99.90;;;;;;5060266;28;20469;-75
2021/06/28 07:09:19;;;;;;;7.88;3.13;;;15.90;99.90;;;;;;5063044;28;20555;-75
2021/06/28 07:11:44;;;;;;;12.02;4.00;;;15.90;99.90;;;;;;5049429;28;20037;-74
2021/06/28 07:14:11;;;;;;;9.90;4.57;;;15.90;99.90;;;;;;5064807;28;20404;-75
2021/06/28 07:16:37;;;;;;;10.40;3.90;;;15.90;99.90;;;;;;5059777;28;20017;-76
2021/06/28 07:19:05;;;;;;;8.23;3.55;;;15.90;99.90;;;;;;5066104;28;20349;-74
2021/06/28 07:21:34;;;;;;;15.50;4.13;;;15.90;99.90;;;;;;5052550;28;20025;-75
2021/06/28 07:23:59;;;;;;;9.50;4.20;;;15.90;99.90;;;;;;5062953;28;20079;-75
2021/06/28 07:26:25;;;;;;;12.73;4.63;;;15.90;99.90;;;;;;5049314;28;20014;-75
2021/06/28 07:28:55;;;;;;;11.13;4.40;;;15.90;99.90;;;;;;5060900;28;20494;-75
2021/06/28 07:31:21;;;;;;;11.32;4.75;;;15.80;99.90;;;;;;5056256;28;20036;-75
2021/06/28 07:33:46;;;;;;;12.80;4.75;;;15.80;99.90;;;;;;5061951;28;20100;-75
2021/06/28 07:36:12;;;;;;;14.52;4.97;;;15.80;99.90;;;;;;5049013;28;20445;-75
2021/06/28 07:38:39;;;;;;;19.02;4.78;;;15.90;99.90;;;;;;5062495;28;20032;-74
2021/06/28 07:41:06;;;;;;;13.40;4.32;;;15.90;99.90;;;;;;5062387;28;20028;-74
2021/06/28 07:43:32;;;;;;;12.68;4.55;;;15.90;99.90;;;;;;5067820;28;20541;-74
2021/06/28 07:45:58;;;;;;;11.07;5.10;;;15.90;99.90;;;;;;5066054;28;20579;-75
2021/06/28 07:48:24;;;;;;;19.77;5.63;;;15.80;99.90;;;;;;5066907;28;20515;-74
2021/06/28 07:50:50;;;;;;;11.43;5.15;;;15.80;99.90;;;;;;5064857;28;20397;-75
2021/06/28 07:53:16;;;;;;;11.90;5.60;;;15.80;99.90;;;;;;5063178;28;20116;-75
2021/06/28 07:55:44;;;;;;;13.95;5.97;;;15.80;99.90;;;;;;5069679;28;20012;-74
2021/06/28 07:58:09;;;;;;;14.05;5.30;;;15.80;99.90;;;;;;5063490;28;20028;-75
2021/06/28 08:00:35;;;;;;;13.60;5.57;;;15.80;99.90;;;;;;5071484;28;20025;-75
2021/06/28 08:03:02;;;;;;;11.45;5.30;;;15.80;99.90;;;;;;5063486;28;20025;-75
2021/06/28 08:05:28;;;;;;;14.20;5.65;;;15.90;99.90;;;;;;5059488;28;20276;-75
2021/06/28 08:07:53;;;;;;;11.00;5.47;;;15.90;99.90;;;;;;5070811;28;20263;-75
2021/06/28 08:10:21;;;;;;;12.18;5.20;;;15.90;99.90;;;;;;5072557;28;20024;-74
2021/06/28 08:12:48;;;;;;;11.48;5.13;;;16.00;99.90;;;;;;5063269;28;20082;-75
2021/06/28 08:15:19;;;;;;;8.07;4.88;;;15.90;99.90;;;;;;5072310;28;20485;-75
2021/06/28 08:17:46;;;;;;;11.75;5.35;;;15.90;99.90;;;;;;5064327;28;20048;-74
2021/06/28 08:20:13;;;;;;;7.95;5.38;;;15.80;99.90;;;;;;5072438;28;20100;-75
2021/06/28 08:22:38;;;;;;;10.05;4.95;;;15.80;99.90;;;;;;5047061;28;20020;-75
2021/06/28 08:25:07;;;;;;;9.65;5.20;;;15.90;99.90;;;;;;5071985;28;20028;-74
2021/06/28 08:27:32;;;;;;;8.70;4.57;;;15.90;99.90;;;;;;5065952;28;20064;-74
2021/06/28 08:29:58;;;;;;;7.32;4.47;;;15.90;99.90;;;;;;5059760;28;20071;-75
2021/06/28 08:32:24;;;;;;;11.82;5.03;;;15.90;99.90;;;;;;5061070;28;20028;-74
2021/06/28 08:34:53;;;;;;;9.50;5.35;;;15.90;99.90;;;;;;5062277;28;20031;-74
2021/06/28 08:37:19;;;;;;;7.15;4.53;;;15.90;99.90;;;;;;5059919;28;20055;-75
2021/06/28 08:39:45;;;;;;;7.63;4.80;;;15.90;99.90;;;;;;5065187;28;20044;-74
2021/06/28 08:42:11;;;;;;;8.65;4.50;;;15.90;99.90;;;;;;5057832;28;20025;-74
2021/06/28 08:44:37;;;;;;;8.18;5.18;;;15.90;99.90;;;;;;5060728;28;20047;-75
2021/06/28 08:47:05;;;;;;;7.72;4.60;;;16.00;99.90;;;;;;5054314;28;20027;-75
2021/06/28 08:49:32;;;;;;;7.63;4.00;;;16.10;99.90;;;;;;5061505;28;20025;-74
2021/06/28 08:51:58;;;;;;;6.85;4.57;;;16.10;99.90;;;;;;5056895;28;20040;-75
2021/06/28 08:54:25;;;;;;;9.40;4.32;;;16.20;99.90;;;;;;5069583;28;20252;-74
2021/06/28 08:56:51;;;;;;;9.65;4.38;;;16.20;99.90;;;;;;5053059;28;20078;-75
2021/06/28 08:59:17;;;;;;;8.25;4.53;;;16.10;99.90;;;;;;5066728;28;20017;-73
2021/06/28 09:01:43;;;;;;;10.30;5.03;;;16.00;99.90;;;;;;5060990;28;20081;-73
2021/06/28 09:04:09;;;;;;;8.23;5.43;;;16.10;99.90;;;;;;5068486;28;20024;-73
2021/06/28 09:06:37;;;;;;;11.32;6.10;;;16.00;99.90;;;;;;5051461;28;20435;-77
2021/06/28 09:09:08;;;;;;;14.43;5.93;;;16.00;99.90;;;;;;5067175;28;20499;-74
2021/06/28 09:11:39;;;;;;;13.32;6.07;;;16.00;99.90;;;;;;5051471;28;20039;-74
2021/06/28 09:14:06;;;;;;;14.38;6.63;;;15.90;99.90;;;;;;5067413;28;20044;-74
2021/06/28 09:16:33;;;;;;;9.13;6.20;;;15.80;99.90;;;;;;5049287;28;20021;-74
2021/06/28 09:19:04;;;;;;;13.23;6.97;;;15.70;99.90;;;;;;5068414;28;20020;-74
2021/06/28 09:21:40;;;;;;;11.52;7.50;;;15.70;99.90;;;;;;5051012;28;20083;-77
2021/06/28 09:24:23;;;;;;;13.13;7.43;;;15.70;99.90;;;;;;5061272;28;20112;-78
2021/06/28 09:26:49;;;;;;;13.45;6.40;;;15.70;99.90;;;;;;5056295;28;20035;-77
2021/06/28 09:29:15;;;;;;;11.20;5.97;;;15.70;99.90;;;;;;5066628;28;20020;-77
2021/06/28 09:31:43;;;;;;;12.50;5.60;;;15.90;99.90;;;;;;5056652;28;20025;-77
2021/06/28 09:34:16;;;;;;;14.02;5.85;;;15.90;99.90;;;;;;5070538;28;20016;-76
2021/06/28 09:36:47;;;;;;;13.32;4.38;;;16.00;99.90;;;;;;5057591;28;20029;-77
2021/06/28 09:39:40;;;;;;;12.35;4.88;;;16.20;99.90;;;;;;5070347;28;20057;-77
2021/06/28 09:42:11;;;;;;;7.68;3.30;;;16.70;99.90;;;;;;5054836;28;20025;-77
2021/06/28 15:56:47;;;;;;;14.32;2.50;;;18.10;99.90;;;;;;3732558;28;20051;-77
2021/06/28 15:59:12;;;;;;;23.95;2.08;;;18.60;99.90;;;;;;5052450;28;20033;-76
2021/06/28 16:01:42;;;;;;;18.98;2.80;;;18.70;99.90;;;;;;5051232;28;20401;-76
2021/06/28 16:04:07;;;;;;;16.58;2.00;;;18.80;99.90;;;;;;5048552;28;20025;-76
2021/06/28 16:06:33;;;;;;;12.13;2.05;;;18.80;99.90;;;;;;5059890;28;20039;-75
2021/06/28 16:08:59;;;;;;;11.68;1.75;;;18.60;99.90;;;;;;5068192;28;20049;-76
2021/06/28 16:11:24;;;;;;;6.82;1.13;;;18.50;99.90;;;;;;5054989;28;20075;-76
2021/06/28 16:13:50;;;;;;;9.98;1.30;;;18.30;99.90;;;;;;5046903;28;20412;-77
2021/06/28 16:16:16;;;;;;;9.13;1.00;;;18.60;99.90;;;;;;5056989;28;20206;-78
2021/06/28 16:18:41;;;;;;;7.40;1.00;;;19.60;99.90;;;;;;5067316;28;20078;-78
2021/06/28 16:21:09;;;;;;;7.40;1.75;;;20.30;99.90;;;;;;5059237;28;20497;-77
2021/06/28 16:23:35;;;;;;;5.25;0.77;;;20.00;99.90;;;;;;5054092;28;20484;-77
2021/06/28 16:26:00;;;;;;;7.50;1.13;;;19.90;99.90;;;;;;5060836;28;20107;-78
2021/06/28 16:28:26;;;;;;;9.13;1.23;;;19.60;99.90;;;;;;5047633;28;20021;-77
2021/06/28 16:30:52;;;;;;;7.72;1.02;;;19.20;99.90;;;;;;5062764;28;20060;-77
2021/06/28 16:33:17;;;;;;;6.03;0.98;;;19.00;99.90;;;;;;5062924;28;20028;-78
2021/06/28 16:35:43;;;;;;;2.78;0.75;;;19.00;99.90;;;;;;5060349;28;20571;-78
2021/06/28 16:38:10;;;;;;;2.38;0.43;;;18.90;99.90;;;;;;5065204;28;20089;-77
2021/06/28 16:40:35;;;;;;;2.85;0.95;;;18.80;99.90;;;;;;5061195;28;20481;-78
2021/06/28 16:43:04;;;;;;;4.45;0.95;;;18.50;99.90;;;;;;5063329;28;20024;-78
2021/06/28 16:45:30;;;;;;;6.28;0.85;;;18.20;99.90;;;;;;5064099;28;20107;-78
2021/06/28 16:47:56;;;;;;;3.78;0.80;;;18.20;99.90;;;;;;5061846;28;20178;-82
2021/06/28 16:50:22;;;;;;;6.10;0.88;;;18.20;99.90;;;;;;5066297;28;20029;-78
2021/06/28 16:52:48;;;;;;;4.35;0.60;;;18.10;99.90;;;;;;5059960;28;20417;-78
2021/06/28 16:55:14;;;;;;;5.43;1.00;;;18.00;99.90;;;;;;5068854;28;20021;-78
2021/06/28 16:57:40;;;;;;;3.67;0.80;;;17.90;99.90;;;;;;5058609;28;20555;-78
2021/06/28 17:00:07;;;;;;;11.38;1.85;;;17.80;99.90;;;;;;5069793;28;20461;-80
2021/06/28 17:02:33;;;;;;;7.03;1.63;;;17.50;99.90;;;;;;5059466;28;20082;-78
2021/06/28 17:04:59;;;;;;;8.00;1.90;;;16.90;99.90;;;;;;5070501;28;20028;-78
2021/06/28 17:07:24;;;;;;;9.32;2.15;;;16.50;99.90;;;;;;5059633;28;20052;-79
2021/06/28 17:09:50;;;;;;;13.57;2.25;;;16.30;99.90;;;;;;5064779;28;20067;-79
2021/06/28 17:12:16;;;;;;;11.70;2.10;;;16.20;99.90;;;;;;5063867;28;20271;-80
2021/06/28 17:14:41;;;;;;;7.60;1.85;;;16.10;99.90;;;;;;5071597;28;20095;-83
2021/06/28 17:17:07;;;;;;;9.50;1.58;;;16.10;99.90;;;;;;5063012;28;20143;-80
2021/06/28 17:19:34;;;;;;;7.88;1.50;;;16.00;99.90;;;;;;5071271;28;20393;-79
2021/06/28 17:22:00;;;;;;;12.23;2.17;;;16.00;99.90;;;;;;5064063;28;20071;-82
2021/06/28 17:24:26;;;;;;;13.40;2.80;;;16.00;99.90;;;;;;5071439;28;20029;-81
2021/06/28 17:26:52;;;;;;;15.57;2.97;;;15.90;99.90;;;;;;5064469;28;20047;-81
2021/06/28 17:29:17;;;;;;;9.15;2.15;;;16.00;99.90;;;;;;5065924;28;20488;-81
2021/06/28 17:31:43;;;;;;;11.38;1.90;;;15.80;99.90;;;;;;5051297;28;20565;-81
2021/06/28 17:34:08;;;;;;;14.95;2.53;;;15.50;99.90;;;;;;5062860;28;20083;-80
2021/06/28 17:36:34;;;;;;;8.20;1.90;;;15.40;99.90;;;;;;5057208;28;20082;-81
2021/06/28 17:39:00;;;;;;;9.48;2.50;;;15.40;99.90;;;;;;5066677;28;20408;-81
2021/06/28 17:41:25;;;;;;;9.10;1.92;;;15.30;99.90;;;;;;5065826;28;20055;-79
2021/06/28 17:43:51;;;;;;;12.15;1.90;;;15.40;99.90;;;;;;5067895;28;20025;-79
2021/06/28 17:46:18;;;;;;;7.57;1.90;;;15.50;99.90;;;;;;5067735;28;20149;-79
2021/06/28 17:48:47;;;;;;;4.05;1.30;;;15.50;99.90;;;;;;5065998;28;20008;-79
2021/06/28 17:51:14;;;;;;;5.28;1.40;;;15.60;99.90;;;;;;5071254;28;20473;-79
2021/06/28 17:53:44;;;;;;;6.93;1.17;;;15.70;99.90;;;;;;5067809;28;20542;-78
2021/06/28 17:56:19;;;;;;;5.32;1.45;;;15.70;99.90;;;;;;5061221;28;20028;-78
2021/06/28 17:58:49;;;;;;;6.97;1.55;;;15.80;99.90;;;;;;5062248;28;20056;-77
2021/06/28 18:01:15;;;;;;;3.92;0.95;;;16.00;99.90;;;;;;5052097;28;20044;-78
2021/06/28 18:03:43;;;;;;;5.00;1.30;;;16.00;99.90;;;;;;5051553;28;20033;-77
2021/06/28 18:06:08;;;;;;;6.60;1.45;;;15.90;99.90;;;;;;5058383;28;20033;-77
2021/06/28 18:08:34;;;;;;;6.45;1.63;;;16.00;99.90;;;;;;5064172;28;20389;-77
2021/06/28 18:11:00;;;;;;;10.75;1.95;;;16.10;99.90;;;;;;5057532;28;20456;-78
2021/06/28 18:13:25;;;;;;;5.97;1.52;;;16.20;99.90;;;;;;5063928;28;20040;-78
2021/06/28 18:15:52;;;;;;;4.55;1.35;;;16.10;99.90;;;;;;5058370;28;20101;-78
2021/06/28 18:18:17;;;;;;;7.95;2.50;;;16.20;99.90;;;;;;5064033;28;20035;-78
2021/06/28 18:20:43;;;;;;;3.28;0.95;;;16.20;99.90;;;;;;5063593;28;20100;-78
2021/06/28 18:23:09;;;;;;;2.40;1.10;;;16.10;99.90;;;;;;5067763;28;20028;-78
2021/06/28 18:25:34;;;;;;;3.13;1.00;;;16.00;99.90;;;;;;5059313;28;20017;-78
2021/06/28 18:28:00;;;;;;;5.22;1.17;;;15.80;99.90;;;;;;5057987;28;20021;-78
2021/06/28 18:30:26;;;;;;;4.55;0.95;;;15.70;99.90;;;;;;5060880;28;20281;-79
2021/06/28 18:32:52;;;;;;;7.03;1.55;;;15.70;99.90;;;;;;5057112;28;20036;-78
2021/06/28 18:35:18;;;;;;;2.88;0.80;;;15.70;99.90;;;;;;5062871;28;20515;-78
2021/06/28 18:37:43;;;;;;;4.55;1.10;;;15.80;99.90;;;;;;5057140;28;20032;-78
2021/06/28 18:40:10;;;;;;;4.03;1.25;;;15.90;99.90;;;;;;5064520;28;20046;-78
2021/06/28 18:42:35;;;;;;;5.00;1.40;;;16.10;99.90;;;;;;5055957;28;20031;-78
2021/06/28 18:45:01;;;;;;;3.38;1.27;;;16.20;99.90;;;;;;5058402;28;20017;-78
2021/06/28 18:47:27;;;;;;;2.38;1.15;;;16.30;99.90;;;;;;5058706;28;20046;-78
2021/06/28 18:49:53;;;;;;;2.08;0.80;;;16.40;99.90;;;;;;5063008;28;20481;-75
2021/06/28 18:52:18;;;;;;;3.38;1.15;;;16.40;99.90;;;;;;5035266;28;20028;-75